createdAt,value
2018-06-12T00:00:57.938Z,19.24
2018-06-12T00:01:58.009Z,19.21
2018-06-12T00:02:58.077Z,19.22
2018-06-12T00:03:58.137Z,19.18
2018-06-12T00:04:58.201Z,19.27
2018-06-12T00:05:58.265Z,19.12
2018-06-12T00:06:58.353Z,19.12
2018-06-12T00:07:58.401Z,19.18
2018-06-12T00:08:58.465Z,19.18
2018-06-12T00:09:58.530Z,19.19
2018-06-12T00:10:58.597Z,19.14
2018-06-12T00:11:58.670Z,19.16
2018-06-12T00:12:58.734Z,19.16
2018-06-12T00:13:58.794Z,19.08
2018-06-12T00:14:58.865Z,19.12
2018-06-12T00:15:58.926Z,19.11
2018-06-12T00:16:58.997Z,19.08
2018-06-12T00:17:59.062Z,19.11
2018-06-12T00:18:59.126Z,19.09
2018-06-12T00:19:59.193Z,19.09
2018-06-12T00:20:59.254Z,19.04
2018-06-12T00:21:59.351Z,19.07
2018-06-12T00:22:59.389Z,18.95
2018-06-12T00:23:59.454Z,18.93
2018-06-12T00:24:59.521Z,18.90
2018-06-12T00:25:59.586Z,18.93
2018-06-12T00:26:59.658Z,18.93
2018-06-12T00:27:59.722Z,18.92
2018-06-12T00:28:59.782Z,18.81
2018-06-12T00:29:59.846Z,18.83
2018-06-12T00:30:59.915Z,18.84
2018-06-12T00:31:59.982Z,18.77
2018-06-12T00:33:00.051Z,18.78
2018-06-12T00:34:00.111Z,18.77
2018-06-12T00:35:00.175Z,18.74
2018-06-12T00:36:00.243Z,18.75
2018-06-12T00:37:00.309Z,18.74
2018-06-12T00:38:00.391Z,18.66
2018-06-12T00:39:00.439Z,18.68
2018-06-12T00:40:00.503Z,18.74
2018-06-12T00:41:00.571Z,18.70
2018-06-12T00:42:00.639Z,18.65
2018-06-12T00:43:00.713Z,18.63
2018-06-12T00:44:00.772Z,18.65
2018-06-12T00:45:00.831Z,18.63
2018-06-12T00:46:00.899Z,18.53
2018-06-12T00:47:00.966Z,18.62
2018-06-12T00:48:01.035Z,18.63
2018-06-12T00:49:01.100Z,18.58
2018-06-12T00:50:01.159Z,18.56
2018-06-12T00:51:01.227Z,18.53
2018-06-12T00:52:01.291Z,18.49
2018-06-12T00:53:01.363Z,18.52
2018-06-12T00:54:01.427Z,18.52
2018-06-12T00:55:01.487Z,18.56
2018-06-12T00:56:01.552Z,18.55
2018-06-12T00:57:01.619Z,18.55
2018-06-12T00:58:01.694Z,18.52
2018-06-12T00:59:01.755Z,18.55
2018-06-12T01:00:01.819Z,18.53
2018-06-12T01:01:01.880Z,18.49
2018-06-12T01:02:01.948Z,18.44
2018-06-12T01:03:02.020Z,18.52
2018-06-12T01:04:02.084Z,18.45
2018-06-12T01:05:02.145Z,18.45
2018-06-12T01:06:02.207Z,18.37
2018-06-12T01:07:02.275Z,18.38
2018-06-12T01:08:02.347Z,18.31
2018-06-12T01:09:02.412Z,18.38
2018-06-12T01:10:02.472Z,18.34
2018-06-12T01:11:02.535Z,18.31
2018-06-12T01:12:02.600Z,18.18
2018-06-12T01:13:02.672Z,18.31
2018-06-12T01:14:02.741Z,18.33
2018-06-12T01:15:02.801Z,18.18
2018-06-12T01:16:02.863Z,18.20
2018-06-12T01:17:02.928Z,18.20
2018-06-12T01:18:03.000Z,18.22
2018-06-12T01:19:03.068Z,18.28
2018-06-12T01:20:03.127Z,18.23
2018-06-12T01:21:03.193Z,18.22
2018-06-12T01:22:03.257Z,18.19
2018-06-12T01:23:03.364Z,18.13
2018-06-12T01:24:03.389Z,18.20
2018-06-12T01:25:03.453Z,18.22
2018-06-12T01:26:03.521Z,18.20
2018-06-12T01:27:03.585Z,18.20
2018-06-12T01:28:03.661Z,18.11
2018-06-12T01:29:03.725Z,18.11
2018-06-12T01:30:03.781Z,18.07
2018-06-12T01:31:03.845Z,18.08
2018-06-12T01:32:03.912Z,18.03
2018-06-12T01:33:03.985Z,17.97
2018-06-12T01:34:04.049Z,17.98
2018-06-12T01:35:04.111Z,18.00
2018-06-12T01:36:04.173Z,18.05
2018-06-12T01:37:04.238Z,18.00
2018-06-12T01:38:04.321Z,18.00
2018-06-12T01:39:04.370Z,18.00
2018-06-12T01:40:04.434Z,18.04
2018-06-12T01:41:04.497Z,17.97
2018-06-12T01:42:04.569Z,17.87
2018-06-12T01:43:04.640Z,17.90
2018-06-12T01:44:04.702Z,18.00
2018-06-12T01:45:04.762Z,17.86
2018-06-12T01:46:04.828Z,17.85
2018-06-12T01:47:04.890Z,17.87
2018-06-12T01:48:04.962Z,17.83
2018-06-12T01:49:05.030Z,17.97
2018-06-12T01:50:05.086Z,17.80
2018-06-12T01:51:05.154Z,17.80
2018-06-12T01:52:05.219Z,17.83
2018-06-12T01:53:05.395Z,17.82
2018-06-12T01:54:05.350Z,17.72
2018-06-12T01:55:05.414Z,17.74
2018-06-12T01:56:05.479Z,17.76
2018-06-12T01:57:05.546Z,17.79
2018-06-12T01:58:05.618Z,17.80
2018-06-12T01:59:05.683Z,17.76
2018-06-12T02:00:05.743Z,17.74
2018-06-12T02:01:05.809Z,17.65
2018-06-12T02:02:05.875Z,17.72
2018-06-12T02:03:05.942Z,17.67
2018-06-12T02:04:06.013Z,17.57
2018-06-12T02:05:06.067Z,17.57
2018-06-12T02:06:06.135Z,17.54
2018-06-12T02:07:06.199Z,17.52
2018-06-12T02:08:06.511Z,17.52
2018-06-12T02:09:06.331Z,17.49
2018-06-12T02:10:06.395Z,17.44
2018-06-12T02:11:06.460Z,17.49
2018-06-12T02:12:06.523Z,17.42
2018-06-12T02:13:06.595Z,17.46
2018-06-12T02:14:06.665Z,17.46
2018-06-12T02:15:06.719Z,17.45
2018-06-12T02:16:06.791Z,17.42
2018-06-12T02:17:06.851Z,17.39
2018-06-12T02:18:06.926Z,17.45
2018-06-12T02:19:06.988Z,17.41
2018-06-12T02:20:07.048Z,17.38
2018-06-12T02:21:07.111Z,17.42
2018-06-12T02:22:07.176Z,17.36
2018-06-12T02:23:07.271Z,17.33
2018-06-12T02:24:07.307Z,17.38
2018-06-12T02:25:07.372Z,17.44
2018-06-12T02:26:07.440Z,17.27
2018-06-12T02:27:07.504Z,17.36
2018-06-12T02:28:07.576Z,17.33
2018-06-12T02:29:07.644Z,17.27
2018-06-12T02:30:07.700Z,17.31
2018-06-12T02:31:07.771Z,17.39
2018-06-12T02:32:07.828Z,17.24
2018-06-12T02:33:07.899Z,17.31
2018-06-12T02:34:07.964Z,17.31
2018-06-12T02:35:08.024Z,17.34
2018-06-12T02:36:08.090Z,17.23
2018-06-12T02:37:08.152Z,17.33
2018-06-12T02:38:08.247Z,17.22
2018-06-12T02:39:08.284Z,17.20
2018-06-12T02:40:08.348Z,17.20
2018-06-12T02:41:08.423Z,17.19
2018-06-12T02:42:08.480Z,17.16
2018-06-12T02:43:08.552Z,17.19
2018-06-12T02:44:08.616Z,17.22
2018-06-12T02:45:08.676Z,17.14
2018-06-12T02:46:08.740Z,17.12
2018-06-12T02:47:08.805Z,17.14
2018-06-12T02:48:08.877Z,17.09
2018-06-12T02:49:08.941Z,17.09
2018-06-12T02:50:08.997Z,17.12
2018-06-12T02:51:09.064Z,17.14
2018-06-12T02:52:09.128Z,17.05
2018-06-12T02:53:09.357Z,17.05
2018-06-12T02:54:09.261Z,17.04
2018-06-12T02:55:09.325Z,17.01
2018-06-12T02:56:09.396Z,17.05
2018-06-12T02:57:09.457Z,17.02
2018-06-12T02:58:09.529Z,17.02
2018-06-12T02:59:09.593Z,16.93
2018-06-12T03:00:09.649Z,16.99
2018-06-12T03:01:09.717Z,16.93
2018-06-12T03:02:09.780Z,16.87
2018-06-12T03:03:09.857Z,16.94
2018-06-12T03:04:09.917Z,16.97
2018-06-12T03:05:09.977Z,16.97
2018-06-12T03:06:10.042Z,17.01
2018-06-12T03:07:10.105Z,16.99
2018-06-12T03:08:10.194Z,16.96
2018-06-12T03:09:10.237Z,16.87
2018-06-12T03:10:10.302Z,16.93
2018-06-12T03:11:10.365Z,16.99
2018-06-12T03:12:10.429Z,16.89
2018-06-12T03:13:10.501Z,16.91
2018-06-12T03:14:10.572Z,16.86
2018-06-12T03:15:10.625Z,16.97
2018-06-12T03:16:10.690Z,16.86
2018-06-12T03:17:10.754Z,16.90
2018-06-12T03:18:10.826Z,16.87
2018-06-12T03:19:10.894Z,17.02
2018-06-12T03:20:10.950Z,16.89
2018-06-12T03:21:11.014Z,16.87
2018-06-12T03:22:11.081Z,16.86
2018-06-12T03:23:11.224Z,16.90
2018-06-12T03:24:11.210Z,16.94
2018-06-12T03:25:11.274Z,16.86
2018-06-12T03:26:11.341Z,16.84
2018-06-12T03:27:11.406Z,16.89
2018-06-12T03:28:11.473Z,16.86
2018-06-12T03:29:11.542Z,16.81
2018-06-12T03:30:11.597Z,16.84
2018-06-12T03:31:11.666Z,16.86
2018-06-12T03:32:11.730Z,16.87
2018-06-12T03:33:11.802Z,16.87
2018-06-12T03:34:11.866Z,16.86
2018-06-12T03:35:11.927Z,16.87
2018-06-12T03:36:11.990Z,16.84
2018-06-12T03:37:12.055Z,16.83
2018-06-12T03:38:12.119Z,16.86
2018-06-12T03:39:12.290Z,16.78
2018-06-12T03:40:12.247Z,16.75
2018-06-12T03:41:12.315Z,16.86
2018-06-12T03:42:12.379Z,16.84
2018-06-12T03:43:12.443Z,16.75
2018-06-12T03:44:12.515Z,16.75
2018-06-12T03:45:12.579Z,16.72
2018-06-12T03:46:12.639Z,16.75
2018-06-12T03:47:12.704Z,16.72
2018-06-12T03:48:12.767Z,16.76
2018-06-12T03:49:12.839Z,16.69
2018-06-12T03:50:12.903Z,16.71
2018-06-12T03:51:12.962Z,16.69
2018-06-12T03:52:13.027Z,16.78
2018-06-12T03:53:13.091Z,16.78
2018-06-12T03:54:13.267Z,16.81
2018-06-12T03:55:13.224Z,16.78
2018-06-12T03:56:13.287Z,16.78
2018-06-12T03:57:13.351Z,16.78
2018-06-12T03:58:13.416Z,16.75
2018-06-12T03:59:13.501Z,16.78
2018-06-12T04:00:13.552Z,16.79
2018-06-12T04:01:13.613Z,16.84
2018-06-12T04:02:13.675Z,16.79
2018-06-12T04:03:13.740Z,16.84
2018-06-12T04:04:13.811Z,16.86
2018-06-12T04:05:13.883Z,16.86
2018-06-12T04:06:13.936Z,17.01
2018-06-12T04:07:14.000Z,16.96
2018-06-12T04:08:14.064Z,16.84
2018-06-12T04:09:14.132Z,16.84
2018-06-12T04:10:14.220Z,17.01
2018-06-12T04:11:14.260Z,17.05
2018-06-12T04:12:14.324Z,16.94
2018-06-12T04:13:14.388Z,16.93
2018-06-12T04:14:14.458Z,16.99
2018-06-12T04:15:14.528Z,16.97
2018-06-12T04:16:14.592Z,16.96
2018-06-12T04:17:14.648Z,16.97
2018-06-12T04:18:14.716Z,16.96
2018-06-12T04:19:14.817Z,16.86
2018-06-12T04:20:14.853Z,16.90
2018-06-12T04:21:14.917Z,16.97
2018-06-12T04:22:14.977Z,16.93
2018-06-12T04:23:15.040Z,16.99
2018-06-12T04:24:15.107Z,17.02
2018-06-12T04:25:15.193Z,16.94
2018-06-12T04:26:15.239Z,16.97
2018-06-12T04:27:15.300Z,17.01
2018-06-12T04:28:15.364Z,16.97
2018-06-12T04:29:15.428Z,16.97
2018-06-12T04:30:15.505Z,16.97
2018-06-12T04:31:15.569Z,16.94
2018-06-12T04:32:15.626Z,16.93
2018-06-12T04:33:15.688Z,16.93
2018-06-12T04:34:15.756Z,16.93
2018-06-12T04:35:15.825Z,16.84
2018-06-12T04:36:15.889Z,16.94
2018-06-12T04:37:15.949Z,17.01
2018-06-12T04:38:16.013Z,17.02
2018-06-12T04:39:16.081Z,17.01
2018-06-12T04:40:16.489Z,17.02
2018-06-12T04:41:16.209Z,17.02
2018-06-12T04:42:16.278Z,16.96
2018-06-12T04:43:16.402Z,17.01
2018-06-12T04:44:16.405Z,17.08
2018-06-12T04:45:16.470Z,17.05
2018-06-12T04:46:16.550Z,17.08
2018-06-12T04:47:16.601Z,17.02
2018-06-12T04:48:16.665Z,17.05
2018-06-12T04:49:16.730Z,17.06
2018-06-12T04:50:16.793Z,17.06
2018-06-12T04:51:16.865Z,17.06
2018-06-12T04:52:16.929Z,17.05
2018-06-12T04:53:16.990Z,17.11
2018-06-12T04:54:17.054Z,17.24
2018-06-12T04:55:17.122Z,17.19
2018-06-12T04:56:17.590Z,17.19
2018-06-12T04:57:17.250Z,17.22
2018-06-12T04:58:17.314Z,17.22
2018-06-12T04:59:17.382Z,17.12
2018-06-12T05:00:17.446Z,17.19
2018-06-12T05:01:17.511Z,17.15
2018-06-12T05:02:17.726Z,17.22
2018-06-12T05:03:17.643Z,17.19
2018-06-12T05:04:17.707Z,17.04
2018-06-12T05:05:17.770Z,17.12
2018-06-12T05:06:17.836Z,17.09
2018-06-12T05:07:17.906Z,17.08
2018-06-12T05:08:17.970Z,17.05
2018-06-12T05:09:18.031Z,17.16
2018-06-12T05:10:18.095Z,17.08
2018-06-12T05:11:18.163Z,17.09
2018-06-12T05:12:18.426Z,17.12
2018-06-12T05:13:18.292Z,17.08
2018-06-12T05:14:18.354Z,17.12
2018-06-12T05:15:18.423Z,17.16
2018-06-12T05:16:18.487Z,17.16
2018-06-12T05:17:18.559Z,17.24
2018-06-12T05:18:18.623Z,17.26
2018-06-12T05:19:18.682Z,17.20
2018-06-12T05:20:18.747Z,17.19
2018-06-12T05:21:18.811Z,17.20
2018-06-12T05:22:18.883Z,17.29
2018-06-12T05:23:18.951Z,17.33
2018-06-12T05:24:19.007Z,17.36
2018-06-12T05:25:19.071Z,17.36
2018-06-12T05:26:19.140Z,17.29
2018-06-12T05:27:19.452Z,17.33
2018-06-12T05:28:19.267Z,17.24
2018-06-12T05:29:19.331Z,17.34
2018-06-12T05:30:19.399Z,17.42
2018-06-12T05:31:19.465Z,17.41
2018-06-12T05:32:19.535Z,17.46
2018-06-12T05:33:19.599Z,17.45
2018-06-12T05:34:19.659Z,17.44
2018-06-12T05:35:19.723Z,17.44
2018-06-12T05:36:19.788Z,17.56
2018-06-12T05:37:19.860Z,17.48
2018-06-12T05:38:19.927Z,17.52
2018-06-12T05:39:19.984Z,17.49
2018-06-12T05:40:20.048Z,17.52
2018-06-12T05:41:20.116Z,17.38
2018-06-12T05:42:20.204Z,17.44
2018-06-12T05:43:20.251Z,17.31
2018-06-12T05:44:20.312Z,17.31
2018-06-12T05:45:20.381Z,17.36
2018-06-12T05:46:20.444Z,17.29
2018-06-12T05:47:20.515Z,17.39
2018-06-12T05:48:20.580Z,17.39
2018-06-12T05:49:20.636Z,17.38
2018-06-12T05:50:20.704Z,17.38
2018-06-12T05:51:20.768Z,17.45
2018-06-12T05:52:20.840Z,17.44
2018-06-12T05:53:20.905Z,17.41
2018-06-12T05:54:20.965Z,17.34
2018-06-12T05:55:21.030Z,17.33
2018-06-12T05:56:21.093Z,17.45
2018-06-12T05:57:21.173Z,17.33
2018-06-12T05:58:21.224Z,17.39
2018-06-12T05:59:21.293Z,17.33
2018-06-12T06:00:21.357Z,17.30
2018-06-12T06:01:21.457Z,17.33
2018-06-12T06:02:21.493Z,17.26
2018-06-12T06:03:21.557Z,17.27
2018-06-12T06:04:21.617Z,17.20
2018-06-12T06:05:21.683Z,17.26
2018-06-12T06:06:21.751Z,17.27
2018-06-12T06:07:21.821Z,17.30
2018-06-12T06:08:21.885Z,17.33
2018-06-12T06:09:21.949Z,17.33
2018-06-12T06:10:22.010Z,17.23
2018-06-12T06:11:22.074Z,17.39
2018-06-12T06:12:22.293Z,17.34
2018-06-12T06:13:22.205Z,17.39
2018-06-12T06:14:22.269Z,17.45
2018-06-12T06:15:22.338Z,17.51
2018-06-12T06:16:22.406Z,17.60
2018-06-12T06:17:22.474Z,17.65
2018-06-12T06:18:22.558Z,17.72
2018-06-12T06:19:22.598Z,17.68
2018-06-12T06:20:22.662Z,17.64
2018-06-12T06:21:22.733Z,17.79
2018-06-12T06:22:22.823Z,17.85
2018-06-12T06:23:22.874Z,17.92
2018-06-12T06:24:22.922Z,17.94
2018-06-12T06:25:22.990Z,17.83
2018-06-12T06:26:23.054Z,18.01
2018-06-12T06:27:23.142Z,18.04
2018-06-12T06:28:23.186Z,18.11
2018-06-12T06:29:23.251Z,18.15
2018-06-12T06:30:23.318Z,18.20
2018-06-12T06:31:23.385Z,18.35
2018-06-12T06:32:23.459Z,18.41
2018-06-12T06:33:23.522Z,18.53
2018-06-12T06:34:23.582Z,18.43
2018-06-12T06:35:23.646Z,18.55
2018-06-12T06:36:23.759Z,18.45
2018-06-12T06:37:23.790Z,18.49
2018-06-12T06:38:23.850Z,18.71
2018-06-12T06:39:23.910Z,18.63
2018-06-12T06:40:23.979Z,18.73
2018-06-12T06:41:24.042Z,18.65
2018-06-12T06:42:24.134Z,18.77
2018-06-12T06:43:24.175Z,18.66
2018-06-12T06:44:24.239Z,18.55
2018-06-12T06:45:24.307Z,18.43
2018-06-12T06:46:24.379Z,18.44
2018-06-12T06:47:24.451Z,18.56
2018-06-12T06:48:24.518Z,18.40
2018-06-12T06:49:24.571Z,18.44
2018-06-12T06:50:24.639Z,18.60
2018-06-12T06:51:24.711Z,18.60
2018-06-12T06:52:24.775Z,18.56
2018-06-12T06:53:24.846Z,18.63
2018-06-12T06:54:24.903Z,18.65
2018-06-12T06:55:24.968Z,18.59
2018-06-12T06:56:25.040Z,18.71
2018-06-12T06:57:25.100Z,18.80
2018-06-12T06:58:25.183Z,18.98
2018-06-12T06:59:25.235Z,18.86
2018-06-12T07:00:25.351Z,18.96
2018-06-12T07:01:25.367Z,18.95
2018-06-12T07:02:25.451Z,19.11
2018-06-12T07:03:25.510Z,19.12
2018-06-12T07:04:25.571Z,19.16
2018-06-12T07:05:25.637Z,19.24
2018-06-12T07:06:25.699Z,19.26
2018-06-12T07:07:25.767Z,19.40
2018-06-12T07:08:25.843Z,19.33
2018-06-12T07:09:25.910Z,19.36
2018-06-12T07:10:25.963Z,19.22
2018-06-12T07:11:26.031Z,19.30
2018-06-12T07:12:26.099Z,19.56
2018-06-12T07:13:26.335Z,19.44
2018-06-12T07:14:26.231Z,19.44
2018-06-12T07:15:26.303Z,19.47
2018-06-12T07:16:26.367Z,19.49
2018-06-12T07:17:26.435Z,19.66
2018-06-12T07:18:26.507Z,19.84
2018-06-12T07:19:26.575Z,19.81
2018-06-12T07:20:26.635Z,20.03
2018-06-12T07:21:26.699Z,19.95
2018-06-12T07:22:26.767Z,19.94
2018-06-12T07:23:26.844Z,19.82
2018-06-12T07:24:26.907Z,19.85
2018-06-12T07:25:26.967Z,19.76
2018-06-12T07:26:27.035Z,19.69
2018-06-12T07:27:27.104Z,19.44
2018-06-12T07:28:27.320Z,19.55
2018-06-12T07:29:27.236Z,19.55
2018-06-12T07:30:27.303Z,19.33
2018-06-12T07:31:27.372Z,19.26
2018-06-12T07:32:27.440Z,19.11
2018-06-12T07:33:27.514Z,19.08
2018-06-12T07:34:27.580Z,19.07
2018-06-12T07:35:27.644Z,19.14
2018-06-12T07:36:27.705Z,18.98
2018-06-12T07:37:27.777Z,18.93
2018-06-12T07:38:27.849Z,18.99
2018-06-12T07:39:27.920Z,18.92
2018-06-12T07:40:27.973Z,18.78
2018-06-12T07:41:28.041Z,18.88
2018-06-12T07:42:28.109Z,18.93
2018-06-12T07:43:28.180Z,19.00
2018-06-12T07:44:28.349Z,19.02
2018-06-12T07:45:28.309Z,18.96
2018-06-12T07:46:28.373Z,19.00
2018-06-12T07:47:28.441Z,18.95
2018-06-12T07:48:28.513Z,18.96
2018-06-12T07:49:28.582Z,18.93
2018-06-12T07:50:28.650Z,18.89
2018-06-12T07:51:28.710Z,18.83
2018-06-12T07:52:28.774Z,18.83
2018-06-12T07:53:28.842Z,18.81
2018-06-12T07:54:28.914Z,18.74
2018-06-12T07:55:28.981Z,18.56
2018-06-12T07:56:29.042Z,18.71
2018-06-12T07:57:29.106Z,18.81
2018-06-12T07:58:29.178Z,18.81
2018-06-12T07:59:29.478Z,18.81
2018-06-12T08:00:29.310Z,18.81
2018-06-12T08:01:29.374Z,18.92
2018-06-12T08:02:29.442Z,18.90
2018-06-12T08:03:29.506Z,18.98
2018-06-12T08:04:29.579Z,18.96
2018-06-12T08:05:29.647Z,19.11
2018-06-12T08:06:29.707Z,19.18
2018-06-12T08:07:29.775Z,19.29
2018-06-12T08:08:29.838Z,19.18
2018-06-12T08:09:29.910Z,19.15
2018-06-12T08:10:29.981Z,19.18
2018-06-12T08:11:30.039Z,19.21
2018-06-12T08:12:30.107Z,19.39
2018-06-12T08:13:30.171Z,19.55
2018-06-12T08:14:30.355Z,19.52
2018-06-12T08:15:30.307Z,19.56
2018-06-12T08:16:30.372Z,19.55
2018-06-12T08:17:30.439Z,19.56
2018-06-12T08:18:30.532Z,19.49
2018-06-12T08:19:30.579Z,19.64
2018-06-12T08:20:30.643Z,19.62
2018-06-12T08:21:30.707Z,19.85
2018-06-12T08:22:30.772Z,19.95
2018-06-12T08:23:30.840Z,19.88
2018-06-12T08:24:30.912Z,19.89
2018-06-12T08:25:30.980Z,20.07
2018-06-12T08:26:31.040Z,20.14
2018-06-12T08:27:31.108Z,20.25
2018-06-12T08:28:31.176Z,20.28
2018-06-12T08:29:31.240Z,20.39
2018-06-12T08:30:31.364Z,20.37
2018-06-12T08:31:31.376Z,20.43
2018-06-12T08:32:31.447Z,20.72
2018-06-12T08:33:31.508Z,20.90
2018-06-12T08:34:31.576Z,20.82
2018-06-12T08:35:31.707Z,20.82
2018-06-12T08:36:31.722Z,20.90
2018-06-12T08:37:31.780Z,20.74
2018-06-12T08:38:31.848Z,20.85
2018-06-12T08:39:31.912Z,20.84
2018-06-12T08:40:31.989Z,20.97
2018-06-12T08:41:32.058Z,20.93
2018-06-12T08:42:32.121Z,21.07
2018-06-12T08:43:32.184Z,21.17
2018-06-12T08:44:32.252Z,21.22
2018-06-12T08:45:32.340Z,21.22
2018-06-12T08:46:32.423Z,21.21
2018-06-12T08:47:32.457Z,21.27
2018-06-12T08:48:32.521Z,21.32
2018-06-12T08:49:32.589Z,21.33
2018-06-12T08:50:32.665Z,21.25
2018-06-12T08:51:32.733Z,21.42
2018-06-12T08:52:32.792Z,21.40
2018-06-12T08:53:32.861Z,21.46
2018-06-12T08:54:32.929Z,21.57
2018-06-12T08:55:33.005Z,21.62
2018-06-12T08:56:33.073Z,21.50
2018-06-12T08:57:33.133Z,21.07
2018-06-12T08:58:33.201Z,20.99
2018-06-12T08:59:33.272Z,20.84
2018-06-12T09:00:33.369Z,20.90
2018-06-12T09:01:33.405Z,20.70
2018-06-12T09:02:33.474Z,20.62
2018-06-12T09:03:33.541Z,20.93
2018-06-12T09:04:33.609Z,21.07
2018-06-12T09:05:33.687Z,20.93
2018-06-12T09:06:33.754Z,20.87
2018-06-12T09:07:33.814Z,20.88
2018-06-12T09:08:33.882Z,20.97
2018-06-12T09:09:33.950Z,20.95
2018-06-12T09:10:34.026Z,20.97
2018-06-12T09:11:34.090Z,20.96
2018-06-12T09:12:34.157Z,21.09
2018-06-12T09:13:34.221Z,20.97
2018-06-12T09:14:34.414Z,21.02
2018-06-12T09:15:34.374Z,21.06
2018-06-12T09:16:34.438Z,21.21
2018-06-12T09:17:34.496Z,21.29
2018-06-12T09:18:34.562Z,21.32
2018-06-12T09:19:34.632Z,21.40
2018-06-12T09:20:34.702Z,21.35
2018-06-12T09:21:34.770Z,21.40
2018-06-12T09:22:34.834Z,21.57
2018-06-12T09:23:34.901Z,21.72
2018-06-12T09:24:34.970Z,21.73
2018-06-12T09:25:35.046Z,21.89
2018-06-12T09:26:35.110Z,21.61
2018-06-12T09:27:35.174Z,21.70
2018-06-12T09:28:35.244Z,21.67
2018-06-12T09:29:35.310Z,21.62
2018-06-12T09:30:35.482Z,21.60
2018-06-12T09:31:35.446Z,21.48
2018-06-12T09:32:35.515Z,21.43
2018-06-12T09:33:35.582Z,21.64
2018-06-12T09:34:35.650Z,21.60
2018-06-12T09:35:35.726Z,21.62
2018-06-12T09:36:35.796Z,21.57
2018-06-12T09:37:35.854Z,21.51
2018-06-12T09:38:35.922Z,21.50
2018-06-12T09:39:35.991Z,21.70
2018-06-12T09:40:36.066Z,21.80
2018-06-12T09:41:36.135Z,21.69
2018-06-12T09:42:36.195Z,21.55
2018-06-12T09:43:36.263Z,21.79
2018-06-12T09:44:36.335Z,21.75
2018-06-12T09:45:36.410Z,21.62
2018-06-12T09:46:36.475Z,21.75
2018-06-12T09:47:36.539Z,21.92
2018-06-12T09:48:36.603Z,21.77
2018-06-12T09:49:36.675Z,21.52
2018-06-12T09:50:36.747Z,21.57
2018-06-12T09:51:36.815Z,21.62
2018-06-12T09:52:36.879Z,21.57
2018-06-12T09:53:36.947Z,21.60
2018-06-12T09:54:37.015Z,21.70
2018-06-12T09:55:37.111Z,21.61
2018-06-12T09:56:37.151Z,21.77
2018-06-12T09:57:37.256Z,21.80
2018-06-12T09:58:37.287Z,21.79
2018-06-12T09:59:37.356Z,21.83
2018-06-12T10:00:37.431Z,21.98
2018-06-12T10:01:37.499Z,22.10
2018-06-12T10:02:37.559Z,22.18
2018-06-12T10:03:37.628Z,22.15
2018-06-12T10:04:37.697Z,22.22
2018-06-12T10:05:37.771Z,22.26
2018-06-12T10:06:37.842Z,22.33
2018-06-12T10:07:37.909Z,22.29
2018-06-12T10:08:37.972Z,22.30
2018-06-12T10:09:38.040Z,22.32
2018-06-12T10:10:38.228Z,22.28
2018-06-12T10:11:38.180Z,22.17
2018-06-12T10:12:38.244Z,22.18
2018-06-12T10:13:38.312Z,22.15
2018-06-12T10:14:38.380Z,22.26
2018-06-12T10:15:38.456Z,22.30
2018-06-12T10:16:38.524Z,22.18
2018-06-12T10:17:38.588Z,22.26
2018-06-12T10:18:38.656Z,22.28
2018-06-12T10:19:38.725Z,22.43
2018-06-12T10:20:38.801Z,22.48
2018-06-12T10:21:38.868Z,22.43
2018-06-12T10:22:38.941Z,22.30
2018-06-12T10:23:39.002Z,22.23
2018-06-12T10:24:39.069Z,22.20
2018-06-12T10:25:39.289Z,22.13
2018-06-12T10:26:39.205Z,22.02
2018-06-12T10:27:39.273Z,22.15
2018-06-12T10:28:39.341Z,22.14
2018-06-12T10:29:39.409Z,22.26
2018-06-12T10:30:39.489Z,22.33
2018-06-12T10:31:39.554Z,22.36
2018-06-12T10:32:39.617Z,22.39
2018-06-12T10:33:39.688Z,22.44
2018-06-12T10:34:39.753Z,22.50
2018-06-12T10:35:39.829Z,22.60
2018-06-12T10:36:39.893Z,22.59
2018-06-12T10:37:39.957Z,22.57
2018-06-12T10:38:40.030Z,22.48
2018-06-12T10:39:40.098Z,22.47
2018-06-12T10:40:40.177Z,22.59
2018-06-12T10:41:40.234Z,22.66
2018-06-12T10:42:40.301Z,22.51
2018-06-12T10:43:40.395Z,22.47
2018-06-12T10:44:40.437Z,22.39
2018-06-12T10:45:40.517Z,22.30
2018-06-12T10:46:40.581Z,22.30
2018-06-12T10:47:40.648Z,22.38
2018-06-12T10:48:40.713Z,22.41
2018-06-12T10:49:40.781Z,22.35
2018-06-12T10:50:40.855Z,22.25
2018-06-12T10:51:40.929Z,22.18
2018-06-12T10:52:40.990Z,22.15
2018-06-12T10:53:41.058Z,22.13
2018-06-12T10:54:41.126Z,22.10
2018-06-12T10:55:41.218Z,22.20
2018-06-12T10:56:41.262Z,22.18
2018-06-12T10:57:41.336Z,22.29
2018-06-12T10:58:41.401Z,22.29
2018-06-12T10:59:41.473Z,22.28
2018-06-12T11:00:41.542Z,22.22
2018-06-12T11:01:41.619Z,22.02
2018-06-12T11:02:41.674Z,22.02
2018-06-12T11:03:41.743Z,21.93
2018-06-12T11:04:41.811Z,21.64
2018-06-12T11:05:41.886Z,21.52
2018-06-12T11:06:41.955Z,21.55
2018-06-12T11:07:42.019Z,21.45
2018-06-12T11:08:42.087Z,21.45
2018-06-12T11:09:42.155Z,21.48
2018-06-12T11:10:42.383Z,21.54
2018-06-12T11:11:42.291Z,21.60
2018-06-12T11:12:42.359Z,21.58
2018-06-12T11:13:42.426Z,21.60
2018-06-12T11:14:42.497Z,21.42
2018-06-12T11:15:42.571Z,21.48
2018-06-12T11:16:42.639Z,21.45
2018-06-12T11:17:42.699Z,21.54
2018-06-12T11:18:42.767Z,21.61
2018-06-12T11:19:42.835Z,21.58
2018-06-12T11:20:43.023Z,21.40
2018-06-12T11:21:42.983Z,21.45
2018-06-12T11:22:43.039Z,21.39
2018-06-12T11:23:43.111Z,21.50
2018-06-12T11:24:43.175Z,21.42
2018-06-12T11:25:43.243Z,21.46
2018-06-12T11:26:43.419Z,21.72
2018-06-12T11:27:43.383Z,21.70
2018-06-12T11:28:43.448Z,21.73
2018-06-12T11:29:43.519Z,21.70
2018-06-12T11:30:43.583Z,21.76
2018-06-12T11:31:43.659Z,21.75
2018-06-12T11:32:43.727Z,21.85
2018-06-12T11:33:43.787Z,21.93
2018-06-12T11:34:43.863Z,21.96
2018-06-12T11:35:43.928Z,21.76
2018-06-12T11:36:44.000Z,21.62
2018-06-12T11:37:44.070Z,21.42
2018-06-12T11:38:44.132Z,21.48
2018-06-12T11:39:44.199Z,21.61
2018-06-12T11:40:44.268Z,21.72
2018-06-12T11:41:44.347Z,21.62
2018-06-12T11:42:44.404Z,21.92
2018-06-12T11:43:44.471Z,22.06
2018-06-12T11:44:44.544Z,22.18
2018-06-12T11:45:44.611Z,22.18
2018-06-12T11:46:44.680Z,22.13
2018-06-12T11:47:44.752Z,22.15
2018-06-12T11:48:44.813Z,22.02
2018-06-12T11:49:44.880Z,22.08
2018-06-12T11:50:44.948Z,22.28
2018-06-12T11:51:45.029Z,22.62
2018-06-12T11:52:45.092Z,22.93
2018-06-12T11:53:45.151Z,23.20
2018-06-12T11:54:45.220Z,23.40
2018-06-12T11:55:45.295Z,23.61
2018-06-12T11:56:45.520Z,23.93
2018-06-12T11:57:45.427Z,24.11
2018-06-12T11:58:45.496Z,24.01
2018-06-12T11:59:45.565Z,24.01
2018-06-12T12:00:45.633Z,24.26
2018-06-12T12:01:45.759Z,24.29
2018-06-12T12:02:45.780Z,24.50
2018-06-12T12:03:45.841Z,24.65
2018-06-12T12:04:45.908Z,24.73
2018-06-12T12:05:45.977Z,24.57
2018-06-12T12:06:46.067Z,24.32
2018-06-12T12:07:46.121Z,24.23
2018-06-12T12:08:46.188Z,24.01
2018-06-12T12:09:46.253Z,23.99
2018-06-12T12:10:46.320Z,24.17
2018-06-12T12:11:46.396Z,24.11
2018-06-12T12:12:46.468Z,24.26
2018-06-12T12:13:46.529Z,24.26
2018-06-12T12:14:46.601Z,24.28
2018-06-12T12:15:46.669Z,24.26
2018-06-12T12:16:46.745Z,24.29
2018-06-12T12:17:46.813Z,24.16
2018-06-12T12:18:46.877Z,24.18
2018-06-12T12:19:46.944Z,23.88
2018-06-12T12:20:47.015Z,23.76
2018-06-12T12:21:47.084Z,23.71
2018-06-12T12:22:47.169Z,23.51
2018-06-12T12:23:47.224Z,23.39
2018-06-12T12:24:47.293Z,23.37
2018-06-12T12:25:47.360Z,23.36
2018-06-12T12:26:47.433Z,23.39
2018-06-12T12:27:47.509Z,23.32
2018-06-12T12:28:47.577Z,23.34
2018-06-12T12:29:47.641Z,23.21
2018-06-12T12:30:47.710Z,22.96
2018-06-12T12:31:47.777Z,22.75
2018-06-12T12:32:47.853Z,22.73
2018-06-12T12:33:47.925Z,22.72
2018-06-12T12:34:47.985Z,22.68
2018-06-12T12:35:48.053Z,22.68
2018-06-12T12:36:48.121Z,22.72
2018-06-12T12:37:48.345Z,22.68
2018-06-12T12:38:48.261Z,22.51
2018-06-12T12:39:48.352Z,22.48
2018-06-12T12:40:48.397Z,22.45
2018-06-12T12:41:48.469Z,22.38
2018-06-12T12:42:48.545Z,22.26
2018-06-12T12:43:48.614Z,22.22
2018-06-12T12:44:48.674Z,22.26
2018-06-12T12:45:48.742Z,22.23
2018-06-12T12:46:48.814Z,22.25
2018-06-12T12:47:48.886Z,22.20
2018-06-12T12:48:48.954Z,22.17
2018-06-12T12:49:49.018Z,22.15
2018-06-12T12:50:49.085Z,22.15
2018-06-12T12:51:49.154Z,22.06
2018-06-12T12:52:49.334Z,21.92
2018-06-12T12:53:49.290Z,21.88